aviador You're here:

KMLF Decoded Metar

MILFORD in UT, USA
Report Time2018-06-19 05:52:00
UTC Time2018-06-19 06:45:06
Flight Rules vfr VFR
Wind180° at 09 kt
W.Decomp.*RWY 16: 9.0 kt HW 0.8 kt RCW
W.Rank180° ranks 4
Current wind is below 180° avg. (9.5)
Visibility9999 m
Phenomena:N/A
Clouds:N/A
Expected CloudBase > 10,800 ft AGL from Temp-Dew spread
CeilingNone
Temp19°C (ISA +14)
Dew Point-8°C (15% RH)
AAT12.8°C
QNH1017 hPa
Density Alt6,565 ft
Elevation5,033 ft
Report Wrong Elevation
Raw Report
KMLF 190552Z AUTO 18009KT 10SM CLR 19/M08 A3002 RMK AO2 SLP100
T01891078 10283 20178 50009=

Extra information for KMLF:More info

Metar Taf Metar & Taf Last 4 Metars F.Rules Stats Wind Profile Meteogram Temp Stats Airport Information Weather charts Add Link Nearby VenuesMetar ALERT Operation Metar Decoded Social comments

AIRNAV info for KMLF